createdAt,value
2018-09-10T00:00:03.093Z,101960.02
2018-09-10T00:02:31.487Z,101959.94
2018-09-10T00:04:59.898Z,101951.63
2018-09-10T00:07:28.266Z,101949.36
2018-09-10T00:09:56.646Z,101954.95
2018-09-10T00:12:25.047Z,101947.92
2018-09-10T00:14:53.418Z,101949.17
2018-09-10T00:17:21.809Z,101950.86
2018-09-10T00:19:50.190Z,101949.96
2018-09-10T00:22:18.639Z,101951.61
2018-09-10T00:24:47.001Z,101959.84
2018-09-10T00:27:15.395Z,101956.33
2018-09-10T00:29:43.753Z,101963.67
2018-09-10T00:32:12.139Z,101967.09
2018-09-10T00:34:40.510Z,101968.38
2018-09-10T00:37:08.898Z,101965.69
2018-09-10T00:39:37.274Z,101957.27
2018-09-10T00:42:05.667Z,101957.27
2018-09-10T00:44:34.038Z,101958.55
2018-09-10T00:47:02.420Z,101958.08
2018-09-10T00:49:30.787Z,101955.43
2018-09-10T00:51:59.178Z,101953.62
2018-09-10T00:54:27.559Z,101958.38
2018-09-10T00:56:55.955Z,101959.61
2018-09-10T00:59:24.322Z,101965.67
2018-09-10T01:01:52.716Z,101954.31
2018-09-10T01:04:21.089Z,101946.83
2018-09-10T01:06:49.479Z,101942.83
2018-09-10T01:09:17.948Z,101934.81
2018-09-10T01:11:46.430Z,101943.48
2018-09-10T01:14:14.795Z,101948.16
2018-09-10T01:16:43.194Z,101948.13
2018-09-10T01:19:11.558Z,101954.13
2018-09-10T01:21:40.051Z,101950.18
2018-09-10T01:24:08.417Z,101957.98
2018-09-10T01:26:36.809Z,101950.93
2018-09-10T01:29:05.175Z,101949.19
2018-09-10T01:31:33.561Z,101946.09
2018-09-10T01:34:07.270Z,101939.96
2018-09-10T01:36:35.662Z,101940.79
2018-09-10T01:39:05.175Z,101938.17
2018-09-10T01:41:33.575Z,101938.53
2018-09-10T01:44:01.948Z,101935.88
2018-09-10T01:46:30.366Z,101949.28
2018-09-10T01:48:58.722Z,101947.02
2018-09-10T01:51:27.107Z,101942.58
2018-09-10T01:53:55.474Z,101938.22
2018-09-10T01:56:23.866Z,101938.62
2018-09-10T01:58:52.234Z,101927.14
2018-09-10T02:01:20.618Z,101924.87
2018-09-10T02:03:48.987Z,101929.56
2018-09-10T02:06:17.371Z,101935.56
2018-09-10T02:08:45.733Z,101938.52
2018-09-10T02:11:14.129Z,101934.99
2018-09-10T02:13:42.493Z,101928.86
2018-09-10T02:16:14.811Z,101927.52
2018-09-10T02:18:43.883Z,101924.91
2018-09-10T02:21:12.265Z,101931.47
2018-09-10T02:23:40.661Z,101928.90
2018-09-10T02:26:09.048Z,101926.30
2018-09-10T02:28:37.431Z,101926.34
2018-09-10T02:31:05.925Z,101927.25
2018-09-10T02:33:34.312Z,101934.26
2018-09-10T02:36:02.698Z,101928.61
2018-09-10T02:38:31.119Z,101937.79
2018-09-10T02:40:59.498Z,101932.22
2018-09-10T02:43:27.888Z,101928.78
2018-09-10T02:45:56.430Z,101923.14
2018-09-10T02:48:24.823Z,101916.22
2018-09-10T02:50:53.294Z,101908.42
2018-09-10T02:53:21.683Z,101910.64
2018-09-10T02:55:50.163Z,101911.95
2018-09-10T02:58:18.550Z,101907.20
2018-09-10T03:00:46.913Z,101911.12
2018-09-10T03:03:15.299Z,101908.11
2018-09-10T03:05:45.297Z,101912.42
2018-09-10T03:08:13.681Z,101904.55
2018-09-10T03:10:42.044Z,101901.11
2018-09-10T03:13:10.442Z,101901.98
2018-09-10T03:15:38.944Z,101912.42
2018-09-10T03:18:07.380Z,101904.19
2018-09-10T03:20:35.728Z,101900.28
2018-09-10T03:23:04.138Z,101897.66
2018-09-10T03:25:32.523Z,101902.02
2018-09-10T03:28:00.926Z,101900.32
2018-09-10T03:30:29.296Z,101898.18
2018-09-10T03:32:57.688Z,101897.71
2018-09-10T03:35:26.058Z,101900.80
2018-09-10T03:37:54.462Z,101899.49
2018-09-10T03:40:22.829Z,101895.14
2018-09-10T03:42:51.330Z,101896.45
2018-09-10T03:45:19.690Z,101897.75
2018-09-10T03:47:48.079Z,101906.89
2018-09-10T03:50:16.450Z,101909.45
2018-09-10T03:52:44.834Z,101907.20
2018-09-10T03:55:13.207Z,101905.42
2018-09-10T03:57:41.597Z,101877.80
2018-09-10T04:00:09.971Z,101894.54
2018-09-10T04:02:38.359Z,101901.94
2018-09-10T04:05:07.578Z,101890.98
2018-09-10T04:07:35.957Z,101884.88
2018-09-10T04:10:04.322Z,101888.36
2018-09-10T04:12:32.714Z,101893.55
2018-09-10T04:15:01.119Z,101900.90
2018-09-10T04:17:29.491Z,101900.89
2018-09-10T04:20:03.270Z,101899.98
2018-09-10T04:22:31.654Z,101896.89
2018-09-10T04:25:00.038Z,101891.27
2018-09-10T04:27:28.402Z,101884.76
2018-09-10T04:29:56.794Z,101883.02
2018-09-10T04:32:25.275Z,101895.23
2018-09-10T04:34:53.854Z,101895.24
2018-09-10T04:37:22.246Z,101892.67
2018-09-10T04:39:50.640Z,101906.64
2018-09-10T04:42:19.172Z,101902.77
2018-09-10T04:44:47.426Z,101899.33
2018-09-10T04:47:15.785Z,101901.15
2018-09-10T04:49:44.182Z,101893.35
2018-09-10T04:52:12.557Z,101887.30
2018-09-10T04:54:40.952Z,101888.17
2018-09-10T04:57:09.322Z,101890.35
2018-09-10T04:59:37.724Z,101881.21
2018-09-10T05:02:06.103Z,101880.38
2018-09-10T05:04:34.566Z,101881.30
2018-09-10T05:07:04.315Z,101883.94
2018-09-10T05:09:32.711Z,101882.20
2018-09-10T05:12:01.094Z,101880.42
2018-09-10T05:14:29.528Z,101884.34
2018-09-10T05:16:57.894Z,101883.04
2018-09-10T05:19:26.307Z,101890.05
2018-09-10T05:21:54.720Z,101890.95
2018-09-10T05:24:23.133Z,101894.08
2018-09-10T05:26:51.506Z,101900.22
2018-09-10T05:29:19.900Z,101895.50
2018-09-10T05:31:48.269Z,101898.20
2018-09-10T05:34:16.653Z,101890.48
2018-09-10T05:36:45.047Z,101898.86
2018-09-10T05:39:13.978Z,101898.98
2018-09-10T05:41:42.413Z,101899.13
2018-09-10T05:44:10.781Z,101893.59
2018-09-10T05:46:39.155Z,101881.50
2018-09-10T05:49:07.566Z,101882.91
2018-09-10T05:51:35.943Z,101886.05
2018-09-10T05:54:04.340Z,101891.37
2018-09-10T05:56:32.706Z,101892.31
2018-09-10T05:59:01.090Z,101891.94
2018-09-10T06:01:29.459Z,101891.50
2018-09-10T06:03:57.851Z,101895.55
2018-09-10T06:06:26.219Z,101903.90
2018-09-10T06:08:54.616Z,101892.62
2018-09-10T06:11:22.991Z,101897.00
2018-09-10T06:13:51.385Z,101894.91
2018-09-10T06:16:19.751Z,101897.15
2018-09-10T06:18:48.389Z,101904.63
2018-09-10T06:21:16.775Z,101897.72
2018-09-10T06:23:45.150Z,101893.02
2018-09-10T06:26:13.783Z,101897.89
2018-09-10T06:28:42.195Z,101889.69
2018-09-10T06:31:10.591Z,101889.37
2018-09-10T06:33:38.963Z,101881.16
2018-09-10T06:36:07.359Z,101881.75
2018-09-10T06:38:35.983Z,101890.20
2018-09-10T06:41:04.382Z,101888.55
2018-09-10T06:43:32.754Z,101887.77
2018-09-10T06:46:01.205Z,101894.45
2018-09-10T06:48:33.808Z,101890.14
2018-09-10T06:51:02.531Z,101888.04
2018-09-10T06:53:30.930Z,101890.28
2018-09-10T06:55:59.318Z,101892.05
2018-09-10T06:58:27.695Z,101888.11
2018-09-10T07:00:56.093Z,101884.60
2018-09-10T07:03:24.461Z,101891.65
2018-09-10T07:05:52.854Z,101885.48
2018-09-10T07:08:21.236Z,101882.84
2018-09-10T07:10:49.675Z,101878.86
2018-09-10T07:13:18.038Z,101876.18
2018-09-10T07:15:46.445Z,101879.22
2018-09-10T07:18:14.807Z,101884.41
2018-09-10T07:20:43.206Z,101873.86
2018-09-10T07:23:11.603Z,101879.94
2018-09-10T07:25:39.991Z,101878.55
2018-09-10T07:28:08.350Z,101875.39
2018-09-10T07:30:36.891Z,101879.27
2018-09-10T07:33:05.270Z,101871.66
2018-09-10T07:35:33.655Z,101868.05
2018-09-10T07:38:02.253Z,101866.63
2018-09-10T07:40:30.651Z,101862.52
2018-09-10T07:42:59.064Z,101860.17
2018-09-10T07:45:27.451Z,101865.73
2018-09-10T07:47:55.814Z,101869.14
2018-09-10T07:50:24.286Z,101860.18
2018-09-10T07:52:52.735Z,101856.16
2018-09-10T07:55:21.123Z,101862.20
2018-09-10T07:57:49.533Z,101861.23
2018-09-10T08:00:17.925Z,101865.09
2018-09-10T08:02:46.402Z,101860.16
2018-09-10T08:05:14.807Z,101864.92
2018-09-10T08:07:43.165Z,101858.27
2018-09-10T08:10:11.550Z,101860.45
2018-09-10T08:12:39.920Z,101859.53
2018-09-10T08:15:08.317Z,101863.89
2018-09-10T08:17:36.685Z,101855.50
2018-09-10T08:20:05.328Z,101855.86
2018-09-10T08:22:33.737Z,101852.27
2018-09-10T08:25:02.133Z,101844.29
2018-09-10T08:27:30.512Z,101843.72
2018-09-10T08:29:58.878Z,101845.86
2018-09-10T08:32:27.253Z,101830.33
2018-09-10T08:34:55.650Z,101829.61
2018-09-10T08:37:24.034Z,101825.89
2018-09-10T08:39:52.403Z,101829.59
2018-09-10T08:42:20.791Z,101834.19
2018-09-10T08:44:49.157Z,101836.15
2018-09-10T08:47:17.544Z,101830.11
2018-09-10T08:49:45.998Z,101829.38
2018-09-10T08:52:14.395Z,101826.41
2018-09-10T08:54:42.983Z,101820.36
2018-09-10T08:57:11.214Z,101824.47
2018-09-10T08:59:39.570Z,101823.82
2018-09-10T09:02:08.002Z,101822.73
2018-09-10T09:04:36.362Z,101819.00
2018-09-10T09:07:04.746Z,101804.28
2018-09-10T09:09:33.138Z,101804.06
2018-09-10T09:12:01.530Z,101816.26
2018-09-10T09:14:29.975Z,101811.25
2018-09-10T09:16:58.359Z,101800.55
2018-09-10T09:19:26.724Z,101807.08
2018-09-10T09:21:55.133Z,101806.03
2018-09-10T09:24:23.503Z,101800.67
2018-09-10T09:26:51.890Z,101803.19
2018-09-10T09:29:20.288Z,101810.08
2018-09-10T09:31:48.679Z,101806.84
2018-09-10T09:34:17.046Z,101811.54
2018-09-10T09:36:50.883Z,101813.17
2018-09-10T09:39:24.554Z,101809.52
2018-09-10T09:41:58.394Z,101808.47
2018-09-10T09:44:32.126Z,101813.59
2018-09-10T09:47:00.551Z,101814.39
2018-09-10T09:49:28.965Z,101814.33
2018-09-10T09:51:57.653Z,101817.35
2018-09-10T09:54:26.014Z,101819.02
2018-09-10T09:56:54.406Z,101813.67
2018-09-10T09:59:22.858Z,101815.00
2018-09-10T10:01:57.285Z,101814.54
2018-09-10T10:04:25.839Z,101816.77
2018-09-10T10:06:54.230Z,101820.34
2018-09-10T10:09:22.598Z,101816.77
2018-09-10T10:11:51.010Z,101822.44
2018-09-10T10:14:19.374Z,101810.95
2018-09-10T10:16:47.762Z,101813.15
2018-09-10T10:19:16.126Z,101806.51
2018-09-10T10:21:44.538Z,101804.69
2018-09-10T10:24:12.907Z,101802.86
2018-09-10T10:26:41.320Z,101806.35
2018-09-10T10:29:09.682Z,101805.39
2018-09-10T10:31:38.072Z,101800.91
2018-09-10T10:34:06.519Z,101805.23
2018-09-10T10:36:34.878Z,101800.66
2018-09-10T10:39:04.173Z,101799.27
2018-09-10T10:41:32.543Z,101810.91
2018-09-10T10:44:00.935Z,101808.09
2018-09-10T10:46:29.449Z,101811.88
2018-09-10T10:48:57.840Z,101806.39
2018-09-10T10:51:26.201Z,101799.18
2018-09-10T10:53:54.607Z,101799.41
2018-09-10T10:56:23.054Z,101790.72
2018-09-10T10:58:51.442Z,101790.58
2018-09-10T11:01:19.813Z,101790.94
2018-09-10T11:03:48.207Z,101790.90
2018-09-10T11:06:16.572Z,101792.23
2018-09-10T11:08:45.127Z,101780.27
2018-09-10T11:11:13.498Z,101787.77
2018-09-10T11:13:41.895Z,101782.45
2018-09-10T11:16:10.258Z,101785.59
2018-09-10T11:18:38.690Z,101786.95
2018-09-10T11:21:07.061Z,101787.92
2018-09-10T11:23:35.482Z,101794.56
2018-09-10T11:26:03.847Z,101793.70
2018-09-10T11:28:32.258Z,101793.23
2018-09-10T11:31:00.617Z,101794.06
2018-09-10T11:33:29.004Z,101790.40
2018-09-10T11:35:57.398Z,101785.87
2018-09-10T11:38:25.797Z,101789.28
2018-09-10T11:40:54.164Z,101786.16
2018-09-10T11:43:22.721Z,101785.36
2018-09-10T11:45:51.262Z,101780.59
2018-09-10T11:48:19.647Z,101778.94
2018-09-10T11:50:48.011Z,101781.73
2018-09-10T11:53:16.395Z,101773.05
2018-09-10T11:55:44.825Z,101773.12
2018-09-10T11:58:13.182Z,101778.17
2018-09-10T12:00:41.547Z,101775.30
2018-09-10T12:03:09.930Z,101777.66
2018-09-10T12:05:38.311Z,101776.88
2018-09-10T12:08:06.699Z,101771.63
2018-09-10T12:10:35.078Z,101775.54
2018-09-10T12:13:03.464Z,101783.01
2018-09-10T12:15:31.935Z,101780.22
2018-09-10T12:18:00.317Z,101780.91
2018-09-10T12:20:28.678Z,101774.38
2018-09-10T12:22:57.087Z,101764.28
2018-09-10T12:25:25.471Z,101770.41
2018-09-10T12:27:53.838Z,101767.34
2018-09-10T12:30:22.235Z,101763.56
2018-09-10T12:32:50.600Z,101767.36
2018-09-10T12:35:19.199Z,101770.38
2018-09-10T12:37:47.579Z,101767.12
2018-09-10T12:40:16.002Z,101768.66
2018-09-10T12:42:44.366Z,101768.50
2018-09-10T12:45:12.763Z,101767.99
2018-09-10T12:47:41.135Z,101768.39
2018-09-10T12:50:09.534Z,101765.33
2018-09-10T12:52:37.930Z,101765.92
2018-09-10T12:55:06.601Z,101763.84
2018-09-10T12:57:34.961Z,101760.09
2018-09-10T13:00:03.380Z,101764.73
2018-09-10T13:02:31.754Z,101771.23
2018-09-10T13:05:00.151Z,101772.78
2018-09-10T13:07:28.557Z,101769.98
2018-09-10T13:09:56.951Z,101770.99
2018-09-10T13:12:25.319Z,101772.14
2018-09-10T13:14:53.740Z,101767.02
2018-09-10T13:17:22.112Z,101771.14
2018-09-10T13:19:50.510Z,101772.62
2018-09-10T13:22:18.909Z,101766.91
2018-09-10T13:24:47.302Z,101771.28
2018-09-10T13:27:15.670Z,101768.59
2018-09-10T13:29:44.126Z,101766.30
2018-09-10T13:32:12.451Z,101765.28
2018-09-10T13:34:40.851Z,101770.42
2018-09-10T13:37:09.227Z,101772.86
2018-09-10T13:39:37.628Z,101770.02
2018-09-10T13:42:06.003Z,101773.36
2018-09-10T13:44:34.398Z,101772.31
2018-09-10T13:47:02.759Z,101779.20
2018-09-10T13:49:31.154Z,101783.51
2018-09-10T13:51:59.533Z,101778.08
2018-09-10T13:54:27.930Z,101777.10
2018-09-10T13:56:56.411Z,101789.86
2018-09-10T13:59:24.808Z,101782.63
2018-09-10T14:01:53.183Z,101779.50
2018-09-10T14:04:21.578Z,101779.50
2018-09-10T14:06:49.950Z,101780.28
2018-09-10T14:09:18.338Z,101782.36
2018-09-10T14:11:46.773Z,101781.30
2018-09-10T14:14:15.175Z,101778.40
2018-09-10T14:16:43.564Z,101769.59
2018-09-10T14:19:11.958Z,101770.21
2018-09-10T14:21:40.342Z,101759.95
2018-09-10T14:24:08.749Z,101756.55
2018-09-10T14:26:37.114Z,101754.05
2018-09-10T14:29:05.490Z,101750.27
2018-09-10T14:31:33.922Z,101754.84
2018-09-10T14:34:02.311Z,101754.45
2018-09-10T14:36:30.706Z,101751.05
2018-09-10T14:38:59.078Z,101751.64
2018-09-10T14:41:27.467Z,101754.14
2018-09-10T14:43:55.826Z,101751.20
2018-09-10T14:46:24.222Z,101753.70
2018-09-10T14:48:52.594Z,101761.91
2018-09-10T14:51:20.991Z,101764.84
2018-09-10T14:53:49.362Z,101769.09
2018-09-10T14:56:17.851Z,101768.52
2018-09-10T14:58:46.290Z,101763.38
2018-09-10T15:01:14.673Z,101760.87
2018-09-10T15:03:43.038Z,101769.42
2018-09-10T15:06:11.436Z,101768.59
2018-09-10T15:08:39.804Z,101780.66
2018-09-10T15:11:08.195Z,101791.00
2018-09-10T15:13:36.560Z,101793.00
2018-09-10T15:16:04.943Z,101792.74
2018-09-10T15:18:33.465Z,101796.94
2018-09-10T15:21:01.726Z,101803.81
2018-09-10T15:23:30.118Z,101808.92
2018-09-10T15:25:58.529Z,101806.49
2018-09-10T15:28:26.894Z,101799.61
2018-09-10T15:30:55.287Z,101804.19
2018-09-10T15:33:23.646Z,101804.38
2018-09-10T15:35:52.036Z,101800.92
2018-09-10T15:38:20.398Z,101795.28
2018-09-10T15:40:48.778Z,101793.55
2018-09-10T15:43:17.155Z,101800.69
2018-09-10T15:45:45.560Z,101798.59
2018-09-10T15:48:13.931Z,101802.23
2018-09-10T15:50:42.326Z,101805.44
2018-09-10T15:53:10.691Z,101801.98
2018-09-10T15:55:39.074Z,101803.40
2018-09-10T15:58:07.429Z,101805.70
2018-09-10T16:00:35.810Z,101811.11
2018-09-10T16:03:04.266Z,101812.52
2018-09-10T16:05:32.650Z,101815.30
2018-09-10T16:08:01.030Z,101822.48
2018-09-10T16:10:29.418Z,101826.58
2018-09-10T16:12:57.774Z,101820.52
2018-09-10T16:15:26.158Z,101826.39
2018-09-10T16:17:54.522Z,101827.40
2018-09-10T16:20:22.911Z,101828.46
2018-09-10T16:22:51.338Z,101831.70
2018-09-10T16:25:19.735Z,101832.28
2018-09-10T16:27:48.123Z,101834.25
2018-09-10T16:30:16.495Z,101834.84
2018-09-10T16:32:44.915Z,101828.38
2018-09-10T16:35:13.295Z,101828.50
2018-09-10T16:37:41.690Z,101820.70
2018-09-10T16:40:10.152Z,101822.54
2018-09-10T16:42:38.558Z,101823.94
2018-09-10T16:45:06.930Z,101816.99
2018-09-10T16:47:35.319Z,101816.14
2018-09-10T16:50:03.691Z,101818.86
2018-09-10T16:52:32.078Z,101817.62
2018-09-10T16:55:00.587Z,101818.58
2018-09-10T16:57:28.865Z,101810.33
2018-09-10T16:59:57.243Z,101813.93
2018-09-10T17:02:25.630Z,101813.16
2018-09-10T17:04:53.990Z,101817.69
2018-09-10T17:07:22.382Z,101818.64
2018-09-10T17:09:50.748Z,101810.44
2018-09-10T17:12:19.167Z,101814.05
2018-09-10T17:14:47.530Z,101813.73
2018-09-10T17:17:15.929Z,101815.98
2018-09-10T17:19:44.309Z,101817.41
2018-09-10T17:22:12.726Z,101820.15
2018-09-10T17:24:41.092Z,101822.91
2018-09-10T17:27:09.569Z,101820.75
2018-09-10T17:29:37.964Z,101818.23
2018-09-10T17:32:06.374Z,101818.77
2018-09-10T17:34:34.741Z,101823.73
2018-09-10T17:37:03.126Z,101831.34
2018-09-10T17:39:31.487Z,101838.45
2018-09-10T17:41:59.873Z,101837.67
2018-09-10T17:44:28.598Z,101840.84
2018-09-10T17:46:57.224Z,101835.22
2018-09-10T17:49:25.567Z,101836.14
2018-09-10T17:51:54.022Z,101840.59
2018-09-10T17:54:22.400Z,101837.59
2018-09-10T17:56:50.789Z,101844.67
2018-09-10T17:59:19.152Z,101844.73
2018-09-10T18:01:47.545Z,101846.98
2018-09-10T18:04:15.909Z,101858.48
2018-09-10T18:06:44.318Z,101862.05
2018-09-10T18:09:13.362Z,101852.39
2018-09-10T18:11:42.269Z,101850.67
2018-09-10T18:14:10.651Z,101856.88
2018-09-10T18:16:39.037Z,101857.78
2018-09-10T18:19:07.398Z,101852.51
2018-09-10T18:21:35.933Z,101857.44
2018-09-10T18:24:04.860Z,101854.81
2018-09-10T18:26:33.280Z,101861.06
2018-09-10T18:29:01.853Z,101853.20
2018-09-10T18:31:30.227Z,101856.77
2018-09-10T18:33:58.613Z,101855.09
2018-09-10T18:36:26.969Z,101860.84
2018-09-10T18:38:55.346Z,101860.45
2018-09-10T18:41:23.707Z,101870.66
2018-09-10T18:43:52.089Z,101869.80
2018-09-10T18:46:20.445Z,101881.28
2018-09-10T18:48:48.879Z,101874.73
2018-09-10T18:51:17.223Z,101877.84
2018-09-10T18:53:45.605Z,101877.88
2018-09-10T18:56:13.968Z,101874.37
2018-09-10T18:58:42.371Z,101886.77
2018-09-10T19:01:10.840Z,101884.59
2018-09-10T19:03:39.225Z,101884.64
2018-09-10T19:06:07.590Z,101879.86
2018-09-10T19:08:35.981Z,101874.64
2018-09-10T19:11:04.352Z,101870.31
2018-09-10T19:13:32.751Z,101872.96
2018-09-10T19:16:01.123Z,101864.64
2018-09-10T19:18:40.907Z,101868.69
2018-09-10T19:21:09.661Z,101862.14
2018-09-10T19:23:38.786Z,101864.37
2018-09-10T19:26:07.777Z,101862.68
2018-09-10T19:28:36.201Z,101860.95
2018-09-10T19:31:04.570Z,101850.02
2018-09-10T19:33:33.292Z,101845.20
2018-09-10T19:36:01.659Z,101838.66
2018-09-10T19:38:30.050Z,101843.48
2018-09-10T19:40:58.419Z,101841.75
2018-09-10T19:43:26.823Z,101857.16
2018-09-10T19:45:55.187Z,101864.25
2018-09-10T19:48:23.574Z,101868.70
2018-09-10T19:50:52.075Z,101861.24
2018-09-10T19:53:20.478Z,101863.05
2018-09-10T19:55:48.848Z,101862.64
2018-09-10T19:58:17.238Z,101856.98
2018-09-10T20:00:45.692Z,101860.11
2018-09-10T20:03:14.073Z,101864.55
2018-09-10T20:05:42.546Z,101862.36
2018-09-10T20:08:10.934Z,101867.22
2018-09-10T20:10:39.295Z,101861.08
2018-09-10T20:13:07.698Z,101866.80
2018-09-10T20:15:36.075Z,101863.78
2018-09-10T20:18:04.466Z,101869.53
2018-09-10T20:20:32.826Z,101874.38
2018-09-10T20:23:01.288Z,101877.47
2018-09-10T20:25:29.649Z,101881.42
2018-09-10T20:27:58.026Z,101888.48
2018-09-10T20:30:26.408Z,101882.80
2018-09-10T20:32:54.807Z,101880.63
2018-09-10T20:35:23.174Z,101884.20
2018-09-10T20:37:51.551Z,101882.45
2018-09-10T20:40:19.938Z,101885.98
2018-09-10T20:42:48.310Z,101872.38
2018-09-10T20:45:16.700Z,101876.37
2018-09-10T20:47:45.063Z,101875.91
2018-09-10T20:50:13.447Z,101875.49
2018-09-10T20:52:41.843Z,101874.63
2018-09-10T20:55:09.850Z,101866.30
2018-09-10T20:57:38.209Z,101876.41
2018-09-10T21:00:06.602Z,101874.22
2018-09-10T21:02:34.973Z,101870.72
2018-09-10T21:05:03.357Z,101864.58
2018-09-10T21:07:31.783Z,101865.92
2018-09-10T21:10:00.136Z,101865.47
2018-09-10T21:12:28.502Z,101871.19
2018-09-10T21:14:56.899Z,101871.19
2018-09-10T21:17:25.257Z,101872.95
2018-09-10T21:19:53.647Z,101872.98
2018-09-10T21:22:22.036Z,101878.23
2018-09-10T21:24:50.462Z,101879.55
2018-09-10T21:27:18.826Z,101884.84
2018-09-10T21:29:47.210Z,101886.59
2018-09-10T21:32:15.575Z,101885.75
2018-09-10T21:34:43.978Z,101887.05
2018-09-10T21:37:12.365Z,101882.68
2018-09-10T21:39:40.880Z,101888.80
2018-09-10T21:42:09.253Z,101878.30
2018-09-10T21:44:37.644Z,101877.86
2018-09-10T21:47:06.356Z,101874.80
2018-09-10T21:49:34.646Z,101877.42
2018-09-10T21:52:03.019Z,101877.00
2018-09-10T21:54:31.501Z,101872.62
2018-09-10T21:56:59.872Z,101875.25
2018-09-10T21:59:28.268Z,101880.53
2018-09-10T22:01:56.625Z,101870.89
2018-09-10T22:04:25.018Z,101867.37
2018-09-10T22:06:53.424Z,101867.84
2018-09-10T22:09:21.814Z,101865.23
2018-09-10T22:12:05.610Z,101860.83
2018-09-10T22:14:34.686Z,101865.69
2018-09-10T22:17:03.438Z,101872.71
2018-09-10T22:19:31.823Z,101884.13
2018-09-10T22:22:00.223Z,101883.23
2018-09-10T22:24:28.619Z,101883.69
2018-09-10T22:26:56.981Z,101880.20
2018-09-10T22:29:25.366Z,101890.73
2018-09-10T22:31:53.746Z,101892.94
2018-09-10T22:34:22.126Z,101899.94
2018-09-10T22:36:50.481Z,101899.95
2018-09-10T22:39:18.866Z,101901.70
2018-09-10T22:41:47.226Z,101903.89
2018-09-10T22:44:15.672Z,101894.72
2018-09-10T22:46:43.998Z,101895.57
2018-09-10T22:49:12.355Z,101898.64
2018-09-10T22:51:40.737Z,101899.53
2018-09-10T22:54:09.278Z,101900.42
2018-09-10T22:56:37.670Z,101913.98
2018-09-10T22:59:06.218Z,101911.37
2018-09-10T23:01:34.597Z,101909.62
2018-09-10T23:04:02.998Z,101910.48
2018-09-10T23:06:31.391Z,101908.30
2018-09-10T23:08:59.762Z,101905.67
2018-09-10T23:11:28.184Z,101905.67
2018-09-10T23:13:56.550Z,101895.60
2018-09-10T23:16:24.981Z,101884.64
2018-09-10T23:18:53.333Z,101887.69
2018-09-10T23:21:21.743Z,101894.72
2018-09-10T23:23:50.113Z,101896.02
2018-09-10T23:26:18.494Z,101892.08
2018-09-10T23:28:46.854Z,101891.20
2018-09-10T23:31:15.277Z,101877.63
2018-09-10T23:33:43.661Z,101870.61
2018-09-10T23:36:12.046Z,101875.86
2018-09-10T23:38:40.418Z,101881.58
2018-09-10T23:41:08.811Z,101887.72
2018-09-10T23:43:37.190Z,101888.16
2018-09-10T23:46:05.761Z,101883.34
2018-09-10T23:48:34.122Z,101885.05
2018-09-10T23:51:02.511Z,101892.08
2018-09-10T23:53:30.878Z,101892.07
2018-09-10T23:55:59.264Z,101889.88
2018-09-10T23:58:27.636Z,101896.45
